sensor_id;sensor_type;location;lat;lon;timestamp;temperature;humidity
60723;DHT22;46574;52.818;6.516;2023-04-07T00:01:00;8.00;99.90
60723;DHT22;46574;52.818;6.516;2023-04-07T00:03:25;8.00;99.90
60723;DHT22;46574;52.818;6.516;2023-04-07T00:05:51;8.00;99.90
60723;DHT22;46574;52.818;6.516;2023-04-07T00:08:17;8.00;99.90
60723;DHT22;46574;52.818;6.516;2023-04-07T00:10:43;8.00;99.90
60723;DHT22;46574;52.818;6.516;2023-04-07T00:13:11;8.00;99.90
60723;DHT22;46574;52.818;6.516;2023-04-07T00:15:37;8.00;99.90
60723;DHT22;46574;52.818;6.516;2023-04-07T00:18:03;8.00;99.90
60723;DHT22;46574;52.818;6.516;2023-04-07T00:20:28;8.00;99.90
60723;DHT22;46574;52.818;6.516;2023-04-07T00:22:54;8.00;99.90
60723;DHT22;46574;52.818;6.516;2023-04-07T00:25:20;8.00;99.90
60723;DHT22;46574;52.818;6.516;2023-04-07T00:27:45;8.00;99.90
60723;DHT22;46574;52.818;6.516;2023-04-07T00:30:11;8.10;99.90
60723;DHT22;46574;52.818;6.516;2023-04-07T00:32:40;8.00;99.90
60723;DHT22;46574;52.818;6.516;2023-04-07T00:35:05;8.00;99.90
60723;DHT22;46574;52.818;6.516;2023-04-07T00:37:31;8.00;99.90
60723;DHT22;46574;52.818;6.516;2023-04-07T00:39:57;8.00;99.90
60723;DHT22;46574;52.818;6.516;2023-04-07T00:42:23;8.00;99.90
60723;DHT22;46574;52.818;6.516;2023-04-07T00:44:49;8.10;99.90
60723;DHT22;46574;52.818;6.516;2023-04-07T00:47:15;8.00;99.90
60723;DHT22;46574;52.818;6.516;2023-04-07T00:49:41;8.00;99.90
60723;DHT22;46574;52.818;6.516;2023-04-07T00:52:07;8.00;99.90
60723;DHT22;46574;52.818;6.516;2023-04-07T00:54:37;8.00;99.90
60723;DHT22;46574;52.818;6.516;2023-04-07T00:57:02;8.10;99.90
60723;DHT22;46574;52.818;6.516;2023-04-07T00:59:28;8.00;99.90
60723;DHT22;46574;52.818;6.516;2023-04-07T01:02:09;8.00;99.90
60723;DHT22;46574;52.818;6.516;2023-04-07T01:04:46;8.10;99.90
60723;DHT22;46574;52.818;6.516;2023-04-07T01:08:07;8.00;99.90
60723;DHT22;46574;52.818;6.516;2023-04-07T01:10:08;8.00;99.90
60723;DHT22;46574;52.818;6.516;2023-04-07T01:12:50;8.00;99.90
60723;DHT22;46574;52.818;6.516;2023-04-07T01:15:20;8.00;99.90
60723;DHT22;46574;52.818;6.516;2023-04-07T01:17:50;8.00;99.90
60723;DHT22;46574;52.818;6.516;2023-04-07T01:20:19;8.10;99.90
60723;DHT22;46574;52.818;6.516;2023-04-07T01:22:52;8.00;99.90
60723;DHT22;46574;52.818;6.516;2023-04-07T01:30:29;8.10;99.90
60723;DHT22;46574;52.818;6.516;2023-04-07T01:32:57;8.10;99.90
60723;DHT22;46574;52.818;6.516;2023-04-07T01:35:25;8.00;99.90
60723;DHT22;46574;52.818;6.516;2023-04-07T01:37:52;8.10;99.90
60723;DHT22;46574;52.818;6.516;2023-04-07T01:40:19;8.00;99.90
60723;DHT22;46574;52.818;6.516;2023-04-07T01:42:46;8.10;99.90
60723;DHT22;46574;52.818;6.516;2023-04-07T01:45:15;8.10;99.90
60723;DHT22;46574;52.818;6.516;2023-04-07T01:47:41;8.10;99.90
60723;DHT22;46574;52.818;6.516;2023-04-07T01:50:08;8.10;99.90
60723;DHT22;46574;52.818;6.516;2023-04-07T01:52:35;8.10;99.90
60723;DHT22;46574;52.818;6.516;2023-04-07T01:55:03;8.10;99.90
60723;DHT22;46574;52.818;6.516;2023-04-07T01:57:29;8.10;99.90
60723;DHT22;46574;52.818;6.516;2023-04-07T01:59:55;8.10;99.90
60723;DHT22;46574;52.818;6.516;2023-04-07T02:02:21;8.10;99.90
60723;DHT22;46574;52.818;6.516;2023-04-07T02:04:58;8.10;99.90
60723;DHT22;46574;52.818;6.516;2023-04-07T02:07:51;8.10;99.90
60723;DHT22;46574;52.818;6.516;2023-04-07T02:10:20;8.10;99.90
60723;DHT22;46574;52.818;6.516;2023-04-07T02:12:47;8.10;99.90
60723;DHT22;46574;52.818;6.516;2023-04-07T02:15:14;8.10;99.90
60723;DHT22;46574;52.818;6.516;2023-04-07T02:17:50;8.10;99.90
60723;DHT22;46574;52.818;6.516;2023-04-07T02:20:17;8.10;99.90
60723;DHT22;46574;52.818;6.516;2023-04-07T02:22:44;8.10;99.90
60723;DHT22;46574;52.818;6.516;2023-04-07T02:25:30;8.10;99.90
60723;DHT22;46574;52.818;6.516;2023-04-07T02:27:57;8.10;99.90
60723;DHT22;46574;52.818;6.516;2023-04-07T02:30:24;8.10;99.90
60723;DHT22;46574;52.818;6.516;2023-04-07T02:32:49;8.00;99.90
60723;DHT22;46574;52.818;6.516;2023-04-07T02:35:15;8.10;99.90
60723;DHT22;46574;52.818;6.516;2023-04-07T02:37:42;8.10;99.90
60723;DHT22;46574;52.818;6.516;2023-04-07T02:40:08;8.10;99.90
60723;DHT22;46574;52.818;6.516;2023-04-07T02:42:34;8.10;99.90
60723;DHT22;46574;52.818;6.516;2023-04-07T02:45:01;8.10;99.90
60723;DHT22;46574;52.818;6.516;2023-04-07T02:47:27;8.10;99.90
60723;DHT22;46574;52.818;6.516;2023-04-07T02:49:53;8.10;99.90
60723;DHT22;46574;52.818;6.516;2023-04-07T02:52:18;8.10;99.90
60723;DHT22;46574;52.818;6.516;2023-04-07T02:54:44;8.10;99.90
60723;DHT22;46574;52.818;6.516;2023-04-07T02:57:10;8.10;99.90
60723;DHT22;46574;52.818;6.516;2023-04-07T02:59:38;8.10;99.90
60723;DHT22;46574;52.818;6.516;2023-04-07T03:02:04;8.10;99.90
60723;DHT22;46574;52.818;6.516;2023-04-07T03:04:30;8.10;99.90
60723;DHT22;46574;52.818;6.516;2023-04-07T03:06:56;8.10;99.90
60723;DHT22;46574;52.818;6.516;2023-04-07T03:09:22;8.10;99.90
60723;DHT22;46574;52.818;6.516;2023-04-07T03:11:48;8.00;99.90
60723;DHT22;46574;52.818;6.516;2023-04-07T03:14:14;8.10;99.90
60723;DHT22;46574;52.818;6.516;2023-04-07T03:16:41;8.10;99.90
60723;DHT22;46574;52.818;6.516;2023-04-07T03:19:07;8.10;99.90
60723;DHT22;46574;52.818;6.516;2023-04-07T03:21:34;8.10;99.90
60723;DHT22;46574;52.818;6.516;2023-04-07T03:24:00;8.10;99.90
60723;DHT22;46574;52.818;6.516;2023-04-07T03:26:26;8.10;99.90
60723;DHT22;46574;52.818;6.516;2023-04-07T03:28:52;8.10;99.90
60723;DHT22;46574;52.818;6.516;2023-04-07T03:31:17;8.10;99.90
60723;DHT22;46574;52.818;6.516;2023-04-07T03:33:43;8.10;99.90
60723;DHT22;46574;52.818;6.516;2023-04-07T03:36:08;8.10;99.90
60723;DHT22;46574;52.818;6.516;2023-04-07T03:38:34;8.10;99.90
60723;DHT22;46574;52.818;6.516;2023-04-07T03:41:00;8.10;99.90
60723;DHT22;46574;52.818;6.516;2023-04-07T03:43:26;8.10;99.90
60723;DHT22;46574;52.818;6.516;2023-04-07T03:45:52;8.10;99.90
60723;DHT22;46574;52.818;6.516;2023-04-07T03:48:18;8.10;99.90
60723;DHT22;46574;52.818;6.516;2023-04-07T03:50:44;8.10;99.90
60723;DHT22;46574;52.818;6.516;2023-04-07T03:53:11;8.10;99.90
60723;DHT22;46574;52.818;6.516;2023-04-07T03:55:39;8.00;99.90
60723;DHT22;46574;52.818;6.516;2023-04-07T03:58:04;8.10;99.90
60723;DHT22;46574;52.818;6.516;2023-04-07T04:00:30;8.10;99.90
60723;DHT22;46574;52.818;6.516;2023-04-07T04:02:58;8.10;99.90
60723;DHT22;46574;52.818;6.516;2023-04-07T04:05:24;8.10;99.90
60723;DHT22;46574;52.818;6.516;2023-04-07T04:07:49;8.10;99.90
60723;DHT22;46574;52.818;6.516;2023-04-07T04:10:17;8.10;99.90
60723;DHT22;46574;52.818;6.516;2023-04-07T04:12:43;8.10;99.90
60723;DHT22;46574;52.818;6.516;2023-04-07T04:15:09;8.10;99.90
60723;DHT22;46574;52.818;6.516;2023-04-07T04:17:35;8.10;99.90
60723;DHT22;46574;52.818;6.516;2023-04-07T04:20:01;8.10;99.90
60723;DHT22;46574;52.818;6.516;2023-04-07T04:22:27;8.10;99.90
60723;DHT22;46574;52.818;6.516;2023-04-07T04:24:52;8.10;99.90
60723;DHT22;46574;52.818;6.516;2023-04-07T04:27:18;8.10;99.90
60723;DHT22;46574;52.818;6.516;2023-04-07T04:29:44;8.10;99.90
60723;DHT22;46574;52.818;6.516;2023-04-07T04:32:10;8.10;99.90
60723;DHT22;46574;52.818;6.516;2023-04-07T04:34:35;8.00;99.90
60723;DHT22;46574;52.818;6.516;2023-04-07T04:37:01;8.00;99.90
60723;DHT22;46574;52.818;6.516;2023-04-07T04:39:27;8.10;99.90
60723;DHT22;46574;52.818;6.516;2023-04-07T04:41:52;8.00;99.90
60723;DHT22;46574;52.818;6.516;2023-04-07T04:44:18;8.00;99.90
60723;DHT22;46574;52.818;6.516;2023-04-07T04:46:43;8.00;99.90
60723;DHT22;46574;52.818;6.516;2023-04-07T04:49:09;8.00;99.90
60723;DHT22;46574;52.818;6.516;2023-04-07T04:51:35;8.00;99.90
60723;DHT22;46574;52.818;6.516;2023-04-07T04:54:00;8.00;99.90
60723;DHT22;46574;52.818;6.516;2023-04-07T04:56:28;8.00;99.90
60723;DHT22;46574;52.818;6.516;2023-04-07T04:58:53;8.00;99.90
60723;DHT22;46574;52.818;6.516;2023-04-07T05:01:19;8.00;99.90
60723;DHT22;46574;52.818;6.516;2023-04-07T05:03:45;8.00;99.90
60723;DHT22;46574;52.818;6.516;2023-04-07T05:06:11;8.00;99.90
60723;DHT22;46574;52.818;6.516;2023-04-07T05:08:36;8.00;99.90
60723;DHT22;46574;52.818;6.516;2023-04-07T05:11:02;8.00;99.90
60723;DHT22;46574;52.818;6.516;2023-04-07T05:13:27;8.00;99.90
60723;DHT22;46574;52.818;6.516;2023-04-07T05:15:55;8.00;99.90
60723;DHT22;46574;52.818;6.516;2023-04-07T05:18:21;8.00;99.90
60723;DHT22;46574;52.818;6.516;2023-04-07T05:20:48;8.00;99.90
60723;DHT22;46574;52.818;6.516;2023-04-07T05:23:13;8.00;99.90
60723;DHT22;46574;52.818;6.516;2023-04-07T05:25:39;8.00;99.90
60723;DHT22;46574;52.818;6.516;2023-04-07T05:28:05;8.00;99.90
60723;DHT22;46574;52.818;6.516;2023-04-07T05:30:31;8.00;99.90
60723;DHT22;46574;52.818;6.516;2023-04-07T05:32:56;8.00;99.90
60723;DHT22;46574;52.818;6.516;2023-04-07T05:35:22;7.90;99.90
60723;DHT22;46574;52.818;6.516;2023-04-07T05:37:48;8.00;99.90
60723;DHT22;46574;52.818;6.516;2023-04-07T05:40:14;8.00;99.90
60723;DHT22;46574;52.818;6.516;2023-04-07T05:42:43;7.90;99.90
60723;DHT22;46574;52.818;6.516;2023-04-07T05:45:09;8.00;99.90
60723;DHT22;46574;52.818;6.516;2023-04-07T05:47:35;7.90;99.90
60723;DHT22;46574;52.818;6.516;2023-04-07T05:50:00;8.00;99.90
60723;DHT22;46574;52.818;6.516;2023-04-07T05:52:26;8.00;99.90
60723;DHT22;46574;52.818;6.516;2023-04-07T05:54:51;8.00;99.90
60723;DHT22;46574;52.818;6.516;2023-04-07T05:57:17;8.00;99.90
60723;DHT22;46574;52.818;6.516;2023-04-07T05:59:43;7.90;99.90
60723;DHT22;46574;52.818;6.516;2023-04-07T06:02:09;7.90;99.90
60723;DHT22;46574;52.818;6.516;2023-04-07T06:04:35;7.90;99.90
60723;DHT22;46574;52.818;6.516;2023-04-07T06:07:01;8.00;99.90
60723;DHT22;46574;52.818;6.516;2023-04-07T06:09:27;8.00;99.90
60723;DHT22;46574;52.818;6.516;2023-04-07T06:11:52;8.00;99.90
60723;DHT22;46574;52.818;6.516;2023-04-07T06:14:18;7.90;99.90
60723;DHT22;46574;52.818;6.516;2023-04-07T06:16:44;8.00;99.90
60723;DHT22;46574;52.818;6.516;2023-04-07T06:19:10;8.00;99.90
60723;DHT22;46574;52.818;6.516;2023-04-07T06:21:35;8.00;99.90
60723;DHT22;46574;52.818;6.516;2023-04-07T06:24:01;8.00;99.90
60723;DHT22;46574;52.818;6.516;2023-04-07T06:26:27;8.00;99.90
60723;DHT22;46574;52.818;6.516;2023-04-07T06:28:52;8.00;99.90
60723;DHT22;46574;52.818;6.516;2023-04-07T06:31:18;8.00;99.90
60723;DHT22;46574;52.818;6.516;2023-04-07T06:33:44;8.00;99.90
60723;DHT22;46574;52.818;6.516;2023-04-07T06:36:10;8.00;99.90
60723;DHT22;46574;52.818;6.516;2023-04-07T06:38:36;8.00;99.90
60723;DHT22;46574;52.818;6.516;2023-04-07T06:41:02;8.10;99.90
60723;DHT22;46574;52.818;6.516;2023-04-07T06:43:29;8.10;99.90
60723;DHT22;46574;52.818;6.516;2023-04-07T06:45:54;8.10;99.90
60723;DHT22;46574;52.818;6.516;2023-04-07T06:48:21;8.20;99.90
60723;DHT22;46574;52.818;6.516;2023-04-07T06:50:50;8.20;99.90
60723;DHT22;46574;52.818;6.516;2023-04-07T06:53:16;8.20;99.90
60723;DHT22;46574;52.818;6.516;2023-04-07T06:55:42;8.30;99.90
60723;DHT22;46574;52.818;6.516;2023-04-07T06:58:07;8.30;99.90
60723;DHT22;46574;52.818;6.516;2023-04-07T07:00:33;8.40;99.90
60723;DHT22;46574;52.818;6.516;2023-04-07T07:03:00;8.40;99.90
60723;DHT22;46574;52.818;6.516;2023-04-07T07:05:26;8.50;99.90
60723;DHT22;46574;52.818;6.516;2023-04-07T07:07:51;8.60;99.90
60723;DHT22;46574;52.818;6.516;2023-04-07T07:10:17;8.60;99.90
60723;DHT22;46574;52.818;6.516;2023-04-07T07:12:45;8.60;99.90
60723;DHT22;46574;52.818;6.516;2023-04-07T07:15:10;8.70;99.90
60723;DHT22;46574;52.818;6.516;2023-04-07T07:17:36;8.70;99.90
60723;DHT22;46574;52.818;6.516;2023-04-07T07:20:02;8.70;99.90
60723;DHT22;46574;52.818;6.516;2023-04-07T07:22:27;8.80;99.90
60723;DHT22;46574;52.818;6.516;2023-04-07T07:24:53;8.80;99.90
60723;DHT22;46574;52.818;6.516;2023-04-07T07:27:19;8.90;99.90
60723;DHT22;46574;52.818;6.516;2023-04-07T07:29:44;8.90;99.90
60723;DHT22;46574;52.818;6.516;2023-04-07T07:32:10;8.90;99.90
60723;DHT22;46574;52.818;6.516;2023-04-07T07:34:36;9.00;99.90
60723;DHT22;46574;52.818;6.516;2023-04-07T07:37:01;9.00;99.90
60723;DHT22;46574;52.818;6.516;2023-04-07T07:39:27;9.00;99.90
60723;DHT22;46574;52.818;6.516;2023-04-07T07:41:54;9.10;99.90
60723;DHT22;46574;52.818;6.516;2023-04-07T07:44:20;9.10;99.90
60723;DHT22;46574;52.818;6.516;2023-04-07T07:46:47;9.10;99.90
60723;DHT22;46574;52.818;6.516;2023-04-07T07:49:13;9.10;99.90
60723;DHT22;46574;52.818;6.516;2023-04-07T07:51:39;9.10;99.90
60723;DHT22;46574;52.818;6.516;2023-04-07T07:54:05;9.10;99.90
60723;DHT22;46574;52.818;6.516;2023-04-07T07:56:31;9.10;99.90
60723;DHT22;46574;52.818;6.516;2023-04-07T07:58:56;9.20;99.90
60723;DHT22;46574;52.818;6.516;2023-04-07T08:01:22;9.20;99.90
60723;DHT22;46574;52.818;6.516;2023-04-07T08:03:47;9.20;99.90
60723;DHT22;46574;52.818;6.516;2023-04-07T08:06:13;9.30;99.90
60723;DHT22;46574;52.818;6.516;2023-04-07T08:08:39;9.40;99.90
60723;DHT22;46574;52.818;6.516;2023-04-07T08:11:04;9.50;99.90
60723;DHT22;46574;52.818;6.516;2023-04-07T08:13:30;9.50;99.90
60723;DHT22;46574;52.818;6.516;2023-04-07T08:15:56;9.50;99.90
60723;DHT22;46574;52.818;6.516;2023-04-07T08:18:22;9.60;99.90
60723;DHT22;46574;52.818;6.516;2023-04-07T08:20:47;9.70;99.90
60723;DHT22;46574;52.818;6.516;2023-04-07T08:23:13;9.80;99.90
60723;DHT22;46574;52.818;6.516;2023-04-07T08:25:39;9.80;99.90
60723;DHT22;46574;52.818;6.516;2023-04-07T08:28:05;10.00;99.90
60723;DHT22;46574;52.818;6.516;2023-04-07T08:30:31;10.00;99.90
60723;DHT22;46574;52.818;6.516;2023-04-07T08:32:56;10.00;99.90
60723;DHT22;46574;52.818;6.516;2023-04-07T08:35:22;10.00;99.90
60723;DHT22;46574;52.818;6.516;2023-04-07T08:37:48;10.00;99.90
60723;DHT22;46574;52.818;6.516;2023-04-07T08:40:15;10.00;99.90
60723;DHT22;46574;52.818;6.516;2023-04-07T08:42:44;10.00;99.90
60723;DHT22;46574;52.818;6.516;2023-04-07T08:45:12;10.00;99.90
60723;DHT22;46574;52.818;6.516;2023-04-07T08:47:39;10.00;99.90
60723;DHT22;46574;52.818;6.516;2023-04-07T08:50:10;10.00;99.90
60723;DHT22;46574;52.818;6.516;2023-04-07T08:52:49;10.00;99.90
60723;DHT22;46574;52.818;6.516;2023-04-07T08:55:15;10.10;99.90
60723;DHT22;46574;52.818;6.516;2023-04-07T08:57:41;10.20;99.90
60723;DHT22;46574;52.818;6.516;2023-04-07T09:00:08;10.20;99.90
60723;DHT22;46574;52.818;6.516;2023-04-07T09:02:37;10.30;99.90
60723;DHT22;46574;52.818;6.516;2023-04-07T09:05:05;10.30;99.90
60723;DHT22;46574;52.818;6.516;2023-04-07T09:07:31;10.40;99.90
60723;DHT22;46574;52.818;6.516;2023-04-07T09:09:58;10.40;99.90
60723;DHT22;46574;52.818;6.516;2023-04-07T09:12:24;10.50;99.90
60723;DHT22;46574;52.818;6.516;2023-04-07T09:14:51;10.50;99.90
60723;DHT22;46574;52.818;6.516;2023-04-07T09:17:17;10.60;99.90
60723;DHT22;46574;52.818;6.516;2023-04-07T09:19:42;10.60;99.90
60723;DHT22;46574;52.818;6.516;2023-04-07T09:22:08;10.60;99.90
60723;DHT22;46574;52.818;6.516;2023-04-07T09:24:37;10.60;99.90
60723;DHT22;46574;52.818;6.516;2023-04-07T09:27:13;10.60;99.90
60723;DHT22;46574;52.818;6.516;2023-04-07T09:29:41;10.70;99.90
60723;DHT22;46574;52.818;6.516;2023-04-07T09:32:08;10.70;99.90
60723;DHT22;46574;52.818;6.516;2023-04-07T09:34:36;10.80;99.90
60723;DHT22;46574;52.818;6.516;2023-04-07T09:37:04;10.80;99.90
60723;DHT22;46574;52.818;6.516;2023-04-07T09:39:30;10.70;99.90
60723;DHT22;46574;52.818;6.516;2023-04-07T09:41:56;10.70;99.90
60723;DHT22;46574;52.818;6.516;2023-04-07T09:44:23;10.60;99.90
60723;DHT22;46574;52.818;6.516;2023-04-07T09:46:55;10.60;99.90
60723;DHT22;46574;52.818;6.516;2023-04-07T09:49:22;10.60;99.90
60723;DHT22;46574;52.818;6.516;2023-04-07T09:52:02;10.60;99.90
60723;DHT22;46574;52.818;6.516;2023-04-07T09:54:39;10.70;99.90
60723;DHT22;46574;52.818;6.516;2023-04-07T09:57:10;10.60;99.90
60723;DHT22;46574;52.818;6.516;2023-04-07T09:59:40;10.70;99.90
60723;DHT22;46574;52.818;6.516;2023-04-07T10:02:10;10.60;99.90
60723;DHT22;46574;52.818;6.516;2023-04-07T10:04:36;10.60;99.90
60723;DHT22;46574;52.818;6.516;2023-04-07T10:07:04;10.60;99.90
60723;DHT22;46574;52.818;6.516;2023-04-07T10:09:30;10.70;99.90
60723;DHT22;46574;52.818;6.516;2023-04-07T10:11:57;10.70;99.90
60723;DHT22;46574;52.818;6.516;2023-04-07T10:14:31;10.80;99.90
60723;DHT22;46574;52.818;6.516;2023-04-07T10:16:59;10.90;99.90
60723;DHT22;46574;52.818;6.516;2023-04-07T10:19:30;11.00;99.90
60723;DHT22;46574;52.818;6.516;2023-04-07T10:21:56;11.10;99.90
60723;DHT22;46574;52.818;6.516;2023-04-07T10:24:43;11.10;99.90
60723;DHT22;46574;52.818;6.516;2023-04-07T10:27:16;11.10;99.90
60723;DHT22;46574;52.818;6.516;2023-04-07T10:29:45;11.20;99.90
60723;DHT22;46574;52.818;6.516;2023-04-07T10:32:13;11.10;99.90
60723;DHT22;46574;52.818;6.516;2023-04-07T10:37:16;10.90;99.90
60723;DHT22;46574;52.818;6.516;2023-04-07T10:39:44;10.90;99.90
60723;DHT22;46574;52.818;6.516;2023-04-07T10:45:05;10.90;99.90
60723;DHT22;46574;52.818;6.516;2023-04-07T10:47:31;10.90;99.90
60723;DHT22;46574;52.818;6.516;2023-04-07T10:50:15;10.90;99.90
60723;DHT22;46574;52.818;6.516;2023-04-07T10:52:45;10.90;99.90
60723;DHT22;46574;52.818;6.516;2023-04-07T10:55:31;11.00;99.90
60723;DHT22;46574;52.818;6.516;2023-04-07T10:58:16;11.10;99.90
60723;DHT22;46574;52.818;6.516;2023-04-07T11:01:15;11.10;99.90
60723;DHT22;46574;52.818;6.516;2023-04-07T11:03:30;11.10;99.90
60723;DHT22;46574;52.818;6.516;2023-04-07T11:06:22;11.00;99.90
60723;DHT22;46574;52.818;6.516;2023-04-07T11:08:48;11.10;99.90
60723;DHT22;46574;52.818;6.516;2023-04-07T11:11:19;11.10;99.90
60723;DHT22;46574;52.818;6.516;2023-04-07T11:13:46;11.10;99.90
60723;DHT22;46574;52.818;6.516;2023-04-07T11:16:13;11.20;99.90
60723;DHT22;46574;52.818;6.516;2023-04-07T11:18:40;11.30;99.90
60723;DHT22;46574;52.818;6.516;2023-04-07T11:21:06;11.40;99.90
60723;DHT22;46574;52.818;6.516;2023-04-07T11:23:43;11.40;99.90
60723;DHT22;46574;52.818;6.516;2023-04-07T11:26:11;11.30;99.90
60723;DHT22;46574;52.818;6.516;2023-04-07T11:28:48;11.20;99.90
60723;DHT22;46574;52.818;6.516;2023-04-07T11:31:28;11.10;99.90
60723;DHT22;46574;52.818;6.516;2023-04-07T11:33:57;11.00;99.90
60723;DHT22;46574;52.818;6.516;2023-04-07T11:36:39;10.90;99.90
60723;DHT22;46574;52.818;6.516;2023-04-07T11:39:17;10.80;99.90
60723;DHT22;46574;52.818;6.516;2023-04-07T11:41:46;10.70;99.90
60723;DHT22;46574;52.818;6.516;2023-04-07T11:44:13;10.60;99.90
60723;DHT22;46574;52.818;6.516;2023-04-07T11:46:53;10.60;99.90
60723;DHT22;46574;52.818;6.516;2023-04-07T11:49:19;10.50;99.90
60723;DHT22;46574;52.818;6.516;2023-04-07T11:51:45;10.50;99.90
60723;DHT22;46574;52.818;6.516;2023-04-07T11:54:11;10.40;99.90
60723;DHT22;46574;52.818;6.516;2023-04-07T11:56:45;10.40;99.90
60723;DHT22;46574;52.818;6.516;2023-04-07T11:59:24;10.40;99.90
60723;DHT22;46574;52.818;6.516;2023-04-07T12:01:51;10.40;99.90
60723;DHT22;46574;52.818;6.516;2023-04-07T12:04:17;10.50;99.90
60723;DHT22;46574;52.818;6.516;2023-04-07T12:06:47;10.50;99.90
60723;DHT22;46574;52.818;6.516;2023-04-07T12:11:54;10.60;99.90
60723;DHT22;46574;52.818;6.516;2023-04-07T12:14:20;10.60;99.90
60723;DHT22;46574;52.818;6.516;2023-04-07T12:16:46;10.60;99.90
60723;DHT22;46574;52.818;6.516;2023-04-07T12:19:11;10.70;99.90
60723;DHT22;46574;52.818;6.516;2023-04-07T12:21:37;10.80;99.90
60723;DHT22;46574;52.818;6.516;2023-04-07T12:24:03;10.80;99.90
60723;DHT22;46574;52.818;6.516;2023-04-07T12:26:28;10.90;99.90
60723;DHT22;46574;52.818;6.516;2023-04-07T12:28:54;11.00;99.90
60723;DHT22;46574;52.818;6.516;2023-04-07T12:31:20;11.00;99.90
60723;DHT22;46574;52.818;6.516;2023-04-07T12:33:46;11.10;99.90
60723;DHT22;46574;52.818;6.516;2023-04-07T12:36:12;11.00;99.90
60723;DHT22;46574;52.818;6.516;2023-04-07T12:38:37;10.90;99.90
60723;DHT22;46574;52.818;6.516;2023-04-07T12:41:03;10.90;99.90
60723;DHT22;46574;52.818;6.516;2023-04-07T12:43:29;10.80;99.90
60723;DHT22;46574;52.818;6.516;2023-04-07T12:45:55;10.90;99.90
60723;DHT22;46574;52.818;6.516;2023-04-07T12:48:22;10.90;99.90
60723;DHT22;46574;52.818;6.516;2023-04-07T12:50:48;10.90;99.90
60723;DHT22;46574;52.818;6.516;2023-04-07T12:53:14;10.90;99.90
60723;DHT22;46574;52.818;6.516;2023-04-07T12:55:40;10.90;99.90
60723;DHT22;46574;52.818;6.516;2023-04-07T12:58:06;11.00;99.90
60723;DHT22;46574;52.818;6.516;2023-04-07T13:00:33;11.10;99.90
60723;DHT22;46574;52.818;6.516;2023-04-07T13:03:00;11.10;99.90
60723;DHT22;46574;52.818;6.516;2023-04-07T13:05:27;11.20;99.90
60723;DHT22;46574;52.818;6.516;2023-04-07T13:07:53;11.30;99.90
60723;DHT22;46574;52.818;6.516;2023-04-07T13:10:19;11.40;99.90
60723;DHT22;46574;52.818;6.516;2023-04-07T13:12:45;11.50;99.90
60723;DHT22;46574;52.818;6.516;2023-04-07T13:15:11;11.60;99.90
60723;DHT22;46574;52.818;6.516;2023-04-07T13:17:37;11.70;99.90
60723;DHT22;46574;52.818;6.516;2023-04-07T13:20:04;11.80;99.90
60723;DHT22;46574;52.818;6.516;2023-04-07T13:22:30;11.80;99.90
60723;DHT22;46574;52.818;6.516;2023-04-07T13:24:55;11.90;99.90
60723;DHT22;46574;52.818;6.516;2023-04-07T13:27:21;12.10;99.90
60723;DHT22;46574;52.818;6.516;2023-04-07T13:29:47;12.10;99.90
60723;DHT22;46574;52.818;6.516;2023-04-07T13:32:12;12.30;99.90
60723;DHT22;46574;52.818;6.516;2023-04-07T13:34:39;12.40;99.90
60723;DHT22;46574;52.818;6.516;2023-04-07T13:37:05;12.60;99.90
60723;DHT22;46574;52.818;6.516;2023-04-07T13:39:31;12.70;99.90
60723;DHT22;46574;52.818;6.516;2023-04-07T13:41:58;12.90;99.90
60723;DHT22;46574;52.818;6.516;2023-04-07T13:44:27;13.00;99.90
60723;DHT22;46574;52.818;6.516;2023-04-07T13:46:53;13.10;99.90
60723;DHT22;46574;52.818;6.516;2023-04-07T13:49:19;13.10;99.90
60723;DHT22;46574;52.818;6.516;2023-04-07T13:51:47;13.00;99.90
60723;DHT22;46574;52.818;6.516;2023-04-07T13:54:12;12.90;99.90
60723;DHT22;46574;52.818;6.516;2023-04-07T13:56:38;12.90;99.90
60723;DHT22;46574;52.818;6.516;2023-04-07T13:59:05;12.80;99.90
60723;DHT22;46574;52.818;6.516;2023-04-07T14:01:31;12.80;99.90
60723;DHT22;46574;52.818;6.516;2023-04-07T14:03:58;12.80;99.90
60723;DHT22;46574;52.818;6.516;2023-04-07T14:06:24;12.80;99.90
60723;DHT22;46574;52.818;6.516;2023-04-07T14:08:51;12.80;99.90
60723;DHT22;46574;52.818;6.516;2023-04-07T14:11:17;12.80;99.90
60723;DHT22;46574;52.818;6.516;2023-04-07T14:13:43;12.80;99.90
60723;DHT22;46574;52.818;6.516;2023-04-07T14:16:09;12.80;99.90
60723;DHT22;46574;52.818;6.516;2023-04-07T14:18:35;12.90;99.90
60723;DHT22;46574;52.818;6.516;2023-04-07T14:21:01;12.90;99.90
60723;DHT22;46574;52.818;6.516;2023-04-07T14:23:28;13.00;99.90
60723;DHT22;46574;52.818;6.516;2023-04-07T14:25:54;13.00;99.90
60723;DHT22;46574;52.818;6.516;2023-04-07T14:28:20;13.10;99.90
60723;DHT22;46574;52.818;6.516;2023-04-07T14:30:45;13.10;99.90
60723;DHT22;46574;52.818;6.516;2023-04-07T14:33:11;13.20;99.90
60723;DHT22;46574;52.818;6.516;2023-04-07T14:35:37;13.20;99.90
60723;DHT22;46574;52.818;6.516;2023-04-07T14:38:03;13.30;99.90
60723;DHT22;46574;52.818;6.516;2023-04-07T14:40:29;13.30;99.90
60723;DHT22;46574;52.818;6.516;2023-04-07T14:42:55;13.20;99.90
60723;DHT22;46574;52.818;6.516;2023-04-07T14:45:22;13.10;99.90
60723;DHT22;46574;52.818;6.516;2023-04-07T14:47:48;13.20;99.90
60723;DHT22;46574;52.818;6.516;2023-04-07T14:50:13;13.30;99.90
60723;DHT22;46574;52.818;6.516;2023-04-07T14:52:39;13.40;99.90
60723;DHT22;46574;52.818;6.516;2023-04-07T14:55:05;13.30;99.90
60723;DHT22;46574;52.818;6.516;2023-04-07T14:57:31;13.20;99.90
60723;DHT22;46574;52.818;6.516;2023-04-07T14:59:56;13.10;99.90
60723;DHT22;46574;52.818;6.516;2023-04-07T15:02:22;13.10;99.90
60723;DHT22;46574;52.818;6.516;2023-04-07T15:04:48;13.10;99.90
60723;DHT22;46574;52.818;6.516;2023-04-07T15:07:13;13.00;99.90
60723;DHT22;46574;52.818;6.516;2023-04-07T15:09:39;13.00;99.90
60723;DHT22;46574;52.818;6.516;2023-04-07T15:12:05;13.10;99.90
60723;DHT22;46574;52.818;6.516;2023-04-07T15:14:30;13.20;99.90
60723;DHT22;46574;52.818;6.516;2023-04-07T15:16:56;13.30;99.90
60723;DHT22;46574;52.818;6.516;2023-04-07T15:19:22;13.30;99.90
60723;DHT22;46574;52.818;6.516;2023-04-07T15:21:47;13.20;99.90
60723;DHT22;46574;52.818;6.516;2023-04-07T15:24:13;13.30;99.90
60723;DHT22;46574;52.818;6.516;2023-04-07T15:26:39;13.40;99.90
60723;DHT22;46574;52.818;6.516;2023-04-07T15:29:04;13.40;99.90
60723;DHT22;46574;52.818;6.516;2023-04-07T15:31:30;13.50;99.90
60723;DHT22;46574;52.818;6.516;2023-04-07T15:33:56;13.50;99.90
60723;DHT22;46574;52.818;6.516;2023-04-07T15:36:21;13.50;99.90
60723;DHT22;46574;52.818;6.516;2023-04-07T15:38:47;13.50;99.90
60723;DHT22;46574;52.818;6.516;2023-04-07T15:41:14;13.50;99.90
60723;DHT22;46574;52.818;6.516;2023-04-07T15:43:40;13.30;99.90
60723;DHT22;46574;52.818;6.516;2023-04-07T15:46:06;13.20;99.90
60723;DHT22;46574;52.818;6.516;2023-04-07T15:48:32;13.00;99.90
60723;DHT22;46574;52.818;6.516;2023-04-07T15:50:57;13.10;99.90
60723;DHT22;46574;52.818;6.516;2023-04-07T15:53:23;13.10;99.90